createdAt,value
2018-05-03T00:00:59.019Z,99.42
2018-05-03T00:01:59.101Z,99.99
2018-05-03T00:02:59.061Z,99.99
2018-05-03T00:03:59.080Z,99.90
2018-05-03T00:04:59.100Z,99.90
2018-05-03T00:05:59.123Z,99.99
2018-05-03T00:06:59.140Z,99.99
2018-05-03T00:07:59.161Z,99.99
2018-05-03T00:08:59.180Z,99.99
2018-05-03T00:09:59.203Z,99.99
2018-05-03T00:10:59.220Z,99.99
2018-05-03T00:11:59.248Z,99.99
2018-05-03T00:12:59.259Z,99.99
2018-05-03T00:13:59.281Z,99.71
2018-05-03T00:14:59.301Z,99.99
2018-05-03T00:15:59.321Z,99.99
2018-05-03T00:16:59.343Z,99.99
2018-05-03T00:17:59.360Z,99.99
2018-05-03T00:18:59.381Z,99.99
2018-05-03T00:19:59.400Z,99.99
2018-05-03T00:20:59.420Z,99.99
2018-05-03T00:21:59.440Z,99.99
2018-05-03T00:22:59.461Z,99.99
2018-05-03T00:23:59.480Z,99.99
2018-05-03T00:24:59.499Z,99.99
2018-05-03T00:25:59.520Z,99.99
2018-05-03T00:26:59.539Z,99.99
2018-05-03T00:27:59.560Z,99.99
2018-05-03T00:28:59.586Z,99.90
2018-05-03T00:29:59.600Z,99.80
2018-05-03T00:30:59.620Z,99.99
2018-05-03T00:31:59.639Z,99.90
2018-05-03T00:32:59.658Z,99.32
2018-05-03T00:33:59.679Z,98.75
2018-05-03T00:34:59.700Z,98.37
2018-05-03T00:35:59.719Z,97.85
2018-05-03T00:36:59.743Z,97.47
2018-05-03T00:37:59.758Z,96.42
2018-05-03T00:38:59.797Z,96.80
2018-05-03T00:39:59.798Z,97.08
2018-05-03T00:40:59.817Z,96.66
2018-05-03T00:41:59.837Z,96.17
2018-05-03T00:42:59.857Z,96.66
2018-05-03T00:43:59.878Z,97.47
2018-05-03T00:44:59.898Z,97.37
2018-05-03T00:45:59.918Z,96.80
2018-05-03T00:46:59.940Z,97.08
2018-05-03T00:47:59.958Z,96.22
2018-05-03T00:49:00.024Z,96.03
2018-05-03T00:49:59.997Z,96.70
2018-05-03T00:51:00.018Z,96.27
2018-05-03T00:52:00.038Z,95.46
2018-05-03T00:53:00.060Z,96.03
2018-05-03T00:54:00.077Z,97.32
2018-05-03T00:55:00.096Z,96.70
2018-05-03T00:56:00.117Z,96.37
2018-05-03T00:57:00.137Z,96.66
2018-05-03T00:58:00.157Z,97.61
2018-05-03T00:59:00.177Z,96.46
2018-05-03T01:00:00.199Z,96.56
2018-05-03T01:01:00.216Z,97.61
2018-05-03T01:02:00.237Z,97.42
2018-05-03T01:03:00.257Z,97.51
2018-05-03T01:04:00.277Z,97.80
2018-05-03T01:05:00.297Z,98.37
2018-05-03T01:06:00.316Z,98.27
2018-05-03T01:07:00.340Z,97.89
2018-05-03T01:08:00.357Z,98.37
2018-05-03T01:09:00.377Z,98.75
2018-05-03T01:10:00.397Z,99.13
2018-05-03T01:11:00.417Z,99.32
2018-05-03T01:12:00.438Z,99.42
2018-05-03T01:13:00.457Z,99.32
2018-05-03T01:14:00.477Z,99.90
2018-05-03T01:15:00.497Z,99.99
2018-05-03T01:16:00.517Z,99.99
2018-05-03T01:17:00.536Z,99.99
2018-05-03T01:18:00.557Z,99.99
2018-05-03T01:19:00.577Z,99.99
2018-05-03T01:20:00.597Z,99.99
2018-05-03T01:21:00.616Z,99.99
2018-05-03T01:22:00.636Z,99.99
2018-05-03T01:23:00.664Z,99.99
2018-05-03T01:24:00.679Z,99.99
2018-05-03T01:25:00.697Z,99.99
2018-05-03T01:26:00.716Z,99.99
2018-05-03T01:27:00.736Z,99.99
2018-05-03T01:28:00.758Z,99.99
2018-05-03T01:29:00.776Z,99.99
2018-05-03T01:30:00.804Z,99.99
2018-05-03T01:31:00.818Z,99.99
2018-05-03T01:32:00.842Z,99.99
2018-05-03T01:33:00.857Z,99.99
2018-05-03T01:34:00.877Z,99.99
2018-05-03T01:35:00.896Z,99.99
2018-05-03T01:36:00.916Z,99.99
2018-05-03T01:37:00.936Z,99.99
2018-05-03T01:38:00.956Z,99.99
2018-05-03T01:39:00.976Z,99.99
2018-05-03T01:40:00.997Z,99.99
2018-05-03T01:41:01.016Z,99.99
2018-05-03T01:42:01.035Z,99.99
2018-05-03T01:43:01.061Z,99.99
2018-05-03T01:44:01.079Z,99.99
2018-05-03T01:45:01.095Z,99.99
2018-05-03T01:46:01.115Z,99.99
2018-05-03T01:47:01.136Z,99.99
2018-05-03T01:48:01.156Z,99.99
2018-05-03T01:49:01.174Z,99.99
2018-05-03T01:50:01.194Z,99.99
2018-05-03T01:51:01.215Z,99.99
2018-05-03T01:52:01.236Z,99.99
2018-05-03T01:53:01.255Z,99.99
2018-05-03T01:54:01.273Z,99.99
2018-05-03T01:55:01.294Z,99.99
2018-05-03T01:56:01.313Z,99.99
2018-05-03T01:57:01.334Z,99.99
2018-05-03T01:58:01.353Z,99.99
2018-05-03T01:59:01.375Z,99.99
2018-05-03T02:00:01.393Z,99.99
2018-05-03T02:01:01.412Z,99.99
2018-05-03T02:02:01.434Z,99.99
2018-05-03T02:03:01.451Z,99.99
2018-05-03T02:04:01.473Z,99.99
2018-05-03T02:05:01.491Z,99.99
2018-05-03T02:06:01.511Z,99.99
2018-05-03T02:07:01.531Z,99.99
2018-05-03T02:08:01.553Z,99.99
2018-05-03T02:09:01.570Z,99.99
2018-05-03T02:10:01.590Z,99.99
2018-05-03T02:11:01.610Z,99.99
2018-05-03T02:12:01.630Z,99.99
2018-05-03T02:13:01.649Z,99.99
2018-05-03T02:14:01.668Z,99.99
2018-05-03T02:15:01.688Z,99.99
2018-05-03T02:16:01.708Z,99.99
2018-05-03T02:17:01.728Z,99.99
2018-05-03T02:18:01.750Z,99.99
2018-05-03T02:19:01.783Z,99.99
2018-05-03T02:20:01.787Z,99.99
2018-05-03T02:21:01.808Z,99.99
2018-05-03T02:22:01.826Z,99.99
2018-05-03T02:23:01.846Z,99.99
2018-05-03T02:24:01.866Z,99.99
2018-05-03T02:25:01.885Z,99.99
2018-05-03T02:26:01.906Z,99.99
2018-05-03T02:27:01.925Z,99.99
2018-05-03T02:28:01.945Z,99.99
2018-05-03T02:29:01.963Z,99.99
2018-05-03T02:30:01.984Z,99.99
2018-05-03T02:31:02.009Z,99.99
2018-05-03T02:32:02.025Z,99.99
2018-05-03T02:33:02.042Z,99.99
2018-05-03T02:34:02.063Z,99.99
2018-05-03T02:35:02.083Z,99.99
2018-05-03T02:36:02.135Z,99.99
2018-05-03T02:37:02.121Z,99.99
2018-05-03T02:38:02.142Z,99.99
2018-05-03T02:39:02.161Z,99.99
2018-05-03T02:40:02.180Z,99.99
2018-05-03T02:41:02.200Z,99.99
2018-05-03T02:42:02.219Z,99.99
2018-05-03T02:43:02.240Z,99.99
2018-05-03T02:44:02.260Z,99.99
2018-05-03T02:45:02.279Z,99.99
2018-05-03T02:46:02.300Z,99.99
2018-05-03T02:47:02.319Z,99.99
2018-05-03T02:48:02.340Z,99.99
2018-05-03T02:49:02.358Z,99.99
2018-05-03T02:50:02.378Z,99.99
2018-05-03T02:51:02.405Z,99.99
2018-05-03T02:52:02.418Z,99.99
2018-05-03T02:53:02.437Z,99.99
2018-05-03T02:54:02.457Z,99.99
2018-05-03T02:55:02.482Z,99.99
2018-05-03T02:56:02.496Z,99.99
2018-05-03T02:57:02.516Z,99.99
2018-05-03T02:58:02.537Z,99.99
2018-05-03T02:59:02.560Z,99.99
2018-05-03T03:00:02.582Z,99.99
2018-05-03T03:01:02.597Z,99.99
2018-05-03T03:02:02.622Z,99.99
2018-05-03T03:03:02.636Z,99.99
2018-05-03T03:04:02.658Z,99.99
2018-05-03T03:05:02.683Z,99.99
2018-05-03T03:06:02.696Z,99.99
2018-05-03T03:07:02.716Z,99.99
2018-05-03T03:08:02.735Z,99.99
2018-05-03T03:09:02.755Z,99.99
2018-05-03T03:10:02.780Z,99.99
2018-05-03T03:11:02.796Z,99.99
2018-05-03T03:12:02.815Z,99.99
2018-05-03T03:13:02.835Z,99.99
2018-05-03T03:14:02.854Z,99.99
2018-05-03T03:15:02.878Z,99.99
2018-05-03T03:16:02.895Z,99.99
2018-05-03T03:17:02.914Z,99.99
2018-05-03T03:18:02.934Z,99.99
2018-05-03T03:19:02.954Z,99.99
2018-05-03T03:20:02.975Z,99.99
2018-05-03T03:21:02.998Z,99.99
2018-05-03T03:22:03.092Z,99.99
2018-05-03T03:23:03.034Z,99.99
2018-05-03T03:24:03.055Z,99.99
2018-05-03T03:25:03.073Z,99.99
2018-05-03T03:26:03.093Z,99.99
2018-05-03T03:27:03.115Z,99.99
2018-05-03T03:28:03.133Z,99.99
2018-05-03T03:29:03.153Z,99.99
2018-05-03T03:30:03.173Z,99.99
2018-05-03T03:31:03.193Z,99.99
2018-05-03T03:32:03.218Z,99.99
2018-05-03T03:33:03.233Z,99.99
2018-05-03T03:34:03.263Z,99.99
2018-05-03T03:35:03.281Z,99.99
2018-05-03T03:36:03.293Z,99.99
2018-05-03T03:37:03.312Z,99.99
2018-05-03T03:38:03.334Z,99.99
2018-05-03T03:39:03.353Z,99.99
2018-05-03T03:40:03.374Z,99.99
2018-05-03T03:41:03.394Z,99.99
2018-05-03T03:42:03.413Z,99.99
2018-05-03T03:43:03.432Z,99.99
2018-05-03T03:44:03.457Z,99.99
2018-05-03T03:45:03.472Z,99.99
2018-05-03T03:46:03.492Z,99.99
2018-05-03T03:47:03.513Z,99.99
2018-05-03T03:48:03.533Z,99.99
2018-05-03T03:49:03.551Z,99.99
2018-05-03T03:50:03.575Z,99.99
2018-05-03T03:51:03.595Z,99.99
2018-05-03T03:52:03.612Z,99.99
2018-05-03T03:53:03.633Z,99.99
2018-05-03T03:54:03.652Z,99.99
2018-05-03T03:55:03.672Z,99.99
2018-05-03T03:56:03.692Z,99.99
2018-05-03T03:57:03.712Z,99.99
2018-05-03T03:58:03.731Z,99.99
2018-05-03T03:59:03.816Z,99.99
2018-05-03T04:00:03.772Z,99.99
2018-05-03T04:01:03.791Z,99.99
2018-05-03T04:02:03.812Z,99.99
2018-05-03T04:03:03.830Z,99.99
2018-05-03T04:04:03.853Z,99.99
2018-05-03T04:05:03.871Z,99.99
2018-05-03T04:06:03.891Z,99.99
2018-05-03T04:07:03.911Z,99.99
2018-05-03T04:08:03.931Z,99.99
2018-05-03T04:09:03.949Z,99.99
2018-05-03T04:10:03.970Z,99.99
2018-05-03T04:11:03.990Z,99.99
2018-05-03T04:12:04.010Z,99.99
2018-05-03T04:13:04.029Z,99.99
2018-05-03T04:14:04.048Z,99.99
2018-05-03T04:15:04.069Z,99.99
2018-05-03T04:16:04.089Z,99.99
2018-05-03T04:17:04.108Z,99.99
2018-05-03T04:18:04.128Z,99.99
2018-05-03T04:19:04.147Z,99.99
2018-05-03T04:20:04.167Z,99.99
2018-05-03T04:21:04.186Z,99.99
2018-05-03T04:22:04.211Z,99.99
2018-05-03T04:23:04.226Z,99.99
2018-05-03T04:24:04.248Z,99.99
2018-05-03T04:25:04.264Z,99.99
2018-05-03T04:26:04.283Z,99.99
2018-05-03T04:27:04.310Z,99.99
2018-05-03T04:28:04.327Z,99.99
2018-05-03T04:29:04.346Z,99.99
2018-05-03T04:30:04.361Z,99.99
2018-05-03T04:31:04.381Z,99.99
2018-05-03T04:32:04.400Z,99.99
2018-05-03T04:33:04.487Z,99.99
2018-05-03T04:34:04.438Z,99.99
2018-05-03T04:35:04.458Z,99.99
2018-05-03T04:36:04.477Z,99.99
2018-05-03T04:37:04.496Z,99.99
2018-05-03T04:38:04.516Z,99.99
2018-05-03T04:39:04.535Z,99.99
2018-05-03T04:40:04.558Z,99.99
2018-05-03T04:41:04.573Z,99.99
2018-05-03T04:42:04.592Z,99.99
2018-05-03T04:43:04.612Z,99.99
2018-05-03T04:44:04.631Z,99.99
2018-05-03T04:45:04.648Z,99.99
2018-05-03T04:46:04.669Z,99.99
2018-05-03T04:47:04.689Z,99.99
2018-05-03T04:48:04.708Z,99.99
2018-05-03T04:49:04.726Z,99.99
2018-05-03T04:50:04.746Z,99.99
2018-05-03T04:51:04.765Z,99.99
2018-05-03T04:52:04.784Z,99.99
2018-05-03T04:53:04.803Z,99.99
2018-05-03T04:54:04.850Z,99.99
2018-05-03T04:55:04.841Z,99.99
2018-05-03T04:56:04.861Z,99.99
2018-05-03T04:57:04.880Z,99.99
2018-05-03T04:58:04.897Z,99.99
2018-05-03T04:59:04.917Z,99.99
2018-05-03T05:00:04.937Z,99.99
2018-05-03T05:01:04.955Z,99.99
2018-05-03T05:02:04.976Z,99.99
2018-05-03T05:03:04.994Z,99.99
2018-05-03T05:04:05.014Z,99.99
2018-05-03T05:05:05.033Z,99.99
2018-05-03T05:06:05.081Z,99.99
2018-05-03T05:07:05.070Z,99.99
2018-05-03T05:08:05.095Z,99.99
2018-05-03T05:09:05.108Z,99.99
2018-05-03T05:10:05.128Z,99.99
2018-05-03T05:11:05.149Z,99.99
2018-05-03T05:12:05.166Z,99.99
2018-05-03T05:13:05.185Z,99.99
2018-05-03T05:14:05.207Z,99.99
2018-05-03T05:15:05.227Z,99.99
2018-05-03T05:16:05.242Z,99.99
2018-05-03T05:17:05.261Z,99.99
2018-05-03T05:18:05.280Z,99.99
2018-05-03T05:19:05.301Z,99.99
2018-05-03T05:20:05.319Z,99.99
2018-05-03T05:21:05.337Z,99.99
2018-05-03T05:22:05.356Z,99.99
2018-05-03T05:23:05.376Z,99.99
2018-05-03T05:24:05.450Z,99.99
2018-05-03T05:25:05.414Z,99.99
2018-05-03T05:26:05.433Z,99.99
2018-05-03T05:27:05.452Z,99.99
2018-05-03T05:28:05.472Z,99.99
2018-05-03T05:29:05.490Z,99.99
2018-05-03T05:30:05.510Z,99.99
2018-05-03T05:31:05.529Z,99.99
2018-05-03T05:32:05.548Z,99.99
2018-05-03T05:33:05.568Z,99.99
2018-05-03T05:34:05.588Z,99.99
2018-05-03T05:35:05.606Z,99.99
2018-05-03T05:36:05.626Z,99.99
2018-05-03T05:37:05.657Z,99.99
2018-05-03T05:38:05.663Z,99.99
2018-05-03T05:39:05.683Z,99.99
2018-05-03T05:40:05.704Z,99.99
2018-05-03T05:41:05.723Z,99.99
2018-05-03T05:42:05.740Z,99.99
2018-05-03T05:43:05.760Z,99.99
2018-05-03T05:44:05.779Z,99.99
2018-05-03T05:45:05.798Z,99.99
2018-05-03T05:46:05.817Z,99.99
2018-05-03T05:47:05.837Z,99.99
2018-05-03T05:48:05.856Z,99.99
2018-05-03T05:49:05.876Z,99.99
2018-05-03T05:50:05.895Z,99.99
2018-05-03T05:51:06.024Z,99.99
2018-05-03T05:52:05.934Z,99.99
2018-05-03T05:53:05.952Z,99.99
2018-05-03T05:54:05.973Z,99.99
2018-05-03T05:55:05.992Z,99.99
2018-05-03T05:56:06.012Z,99.99
2018-05-03T05:57:06.029Z,99.99
2018-05-03T05:58:06.052Z,99.99
2018-05-03T05:59:06.071Z,99.99
2018-05-03T06:00:06.090Z,99.99
2018-05-03T06:01:06.107Z,99.99
2018-05-03T06:02:06.127Z,99.99
2018-05-03T06:03:06.147Z,99.99
2018-05-03T06:04:06.167Z,99.99
2018-05-03T06:05:06.186Z,99.99
2018-05-03T06:06:06.206Z,99.99
2018-05-03T06:07:06.226Z,99.99
2018-05-03T06:08:06.244Z,99.99
2018-05-03T06:09:06.264Z,99.99
2018-05-03T06:10:06.285Z,99.99
2018-05-03T06:11:06.307Z,99.99
2018-05-03T06:12:06.323Z,99.99
2018-05-03T06:13:06.342Z,99.99
2018-05-03T06:14:06.362Z,99.99
2018-05-03T06:15:06.382Z,99.99
2018-05-03T06:16:06.401Z,99.99
2018-05-03T06:17:06.432Z,99.99
2018-05-03T06:18:06.441Z,99.99
2018-05-03T06:19:06.461Z,99.99
2018-05-03T06:20:06.480Z,99.99
2018-05-03T06:21:06.501Z,99.99
2018-05-03T06:22:06.519Z,99.99
2018-05-03T06:23:06.538Z,99.99
2018-05-03T06:24:06.558Z,99.99
2018-05-03T06:25:06.577Z,99.99
2018-05-03T06:26:06.649Z,99.99
2018-05-03T06:27:06.617Z,99.99
2018-05-03T06:28:06.636Z,99.99
2018-05-03T06:29:06.655Z,99.99
2018-05-03T06:30:06.676Z,99.99
2018-05-03T06:31:06.697Z,99.99
2018-05-03T06:32:06.719Z,99.99
2018-05-03T06:33:06.743Z,99.99
2018-05-03T06:34:06.755Z,99.99
2018-05-03T06:35:06.776Z,99.99
2018-05-03T06:36:06.795Z,99.99
2018-05-03T06:37:06.814Z,99.99
2018-05-03T06:38:06.834Z,99.99
2018-05-03T06:39:06.857Z,99.99
2018-05-03T06:40:06.872Z,99.99
2018-05-03T06:41:06.892Z,99.99
2018-05-03T06:42:06.911Z,99.99
2018-05-03T06:43:06.933Z,99.99
2018-05-03T06:44:06.954Z,99.99
2018-05-03T06:45:06.971Z,99.99
2018-05-03T06:46:06.992Z,99.99
2018-05-03T06:47:07.011Z,99.99
2018-05-03T06:48:07.036Z,99.99
2018-05-03T06:49:07.051Z,99.99
2018-05-03T06:50:07.070Z,99.99
2018-05-03T06:51:07.090Z,99.99
2018-05-03T06:52:07.111Z,99.99
2018-05-03T06:53:07.132Z,99.71
2018-05-03T06:54:07.382Z,99.71
2018-05-03T06:55:07.238Z,99.99
2018-05-03T06:56:08.423Z,99.99
2018-05-03T06:57:07.212Z,99.99
2018-05-03T06:58:07.230Z,99.99
2018-05-03T06:59:07.254Z,99.99
2018-05-03T07:00:07.274Z,99.99
2018-05-03T07:01:07.292Z,99.61
2018-05-03T07:02:07.311Z,98.52
2018-05-03T07:03:07.329Z,97.08
2018-05-03T07:04:07.428Z,97.18
2018-05-03T07:05:07.373Z,96.13
2018-05-03T07:06:07.396Z,95.36
2018-05-03T07:07:07.412Z,95.46
2018-05-03T07:08:07.431Z,94.89
2018-05-03T07:09:07.495Z,94.12
2018-05-03T07:10:07.471Z,94.03
2018-05-03T07:11:07.492Z,91.36
2018-05-03T07:12:07.516Z,92.21
2018-05-03T07:13:07.532Z,91.83
2018-05-03T07:14:07.552Z,91.16
2018-05-03T07:15:07.574Z,91.64
2018-05-03T07:16:08.345Z,92.02
2018-05-03T07:17:07.616Z,91.93
2018-05-03T07:18:07.634Z,92.41
2018-05-03T07:19:07.654Z,91.97
2018-05-03T07:20:07.924Z,91.78
2018-05-03T07:21:07.693Z,90.06
2018-05-03T07:22:07.714Z,89.11
2018-05-03T07:23:07.735Z,88.82
2018-05-03T07:24:07.756Z,87.20
2018-05-03T07:25:07.777Z,89.39
2018-05-03T07:26:07.812Z,90.45
2018-05-03T07:27:07.818Z,90.54
2018-05-03T07:28:07.842Z,91.69
2018-05-03T07:29:07.859Z,91.97
2018-05-03T07:30:07.881Z,92.83
2018-05-03T07:31:07.902Z,92.02
2018-05-03T07:32:07.923Z,92.26
2018-05-03T07:33:07.943Z,92.64
2018-05-03T07:34:07.965Z,91.97
2018-05-03T07:35:07.987Z,92.21
2018-05-03T07:36:08.010Z,91.25
2018-05-03T07:37:08.039Z,90.20
2018-05-03T07:38:08.049Z,90.20
2018-05-03T07:39:08.076Z,90.78
2018-05-03T07:40:08.094Z,91.45
2018-05-03T07:41:08.175Z,91.25
2018-05-03T07:42:08.137Z,89.63
2018-05-03T07:43:08.158Z,90.78
2018-05-03T07:44:08.181Z,91.93
2018-05-03T07:45:08.213Z,91.35
2018-05-03T07:46:08.223Z,92.93
2018-05-03T07:47:08.245Z,93.60
2018-05-03T07:48:08.266Z,95.61
2018-05-03T07:49:08.288Z,95.79
2018-05-03T07:50:08.311Z,94.74
2018-05-03T07:51:08.333Z,94.65
2018-05-03T07:52:08.353Z,93.60
2018-05-03T07:53:08.377Z,93.70
2018-05-03T07:54:08.397Z,93.70
2018-05-03T07:55:08.770Z,94.65
2018-05-03T07:56:08.441Z,96.08
2018-05-03T07:57:08.459Z,95.65
2018-05-03T07:58:08.482Z,94.70
2018-05-03T07:59:08.503Z,94.60
2018-05-03T08:00:08.745Z,94.60
2018-05-03T08:01:08.547Z,95.94
2018-05-03T08:02:08.636Z,95.51
2018-05-03T08:03:08.639Z,93.98
2018-05-03T08:04:08.609Z,93.02
2018-05-03T08:05:08.630Z,92.55
2018-05-03T08:06:08.651Z,93.31
2018-05-03T08:07:08.674Z,94.93
2018-05-03T08:08:08.694Z,96.27
2018-05-03T08:09:08.717Z,97.32
2018-05-03T08:10:08.737Z,95.32
2018-05-03T08:11:08.759Z,94.17
2018-05-03T08:12:08.780Z,93.79
2018-05-03T08:13:08.800Z,94.07
2018-05-03T08:14:08.821Z,95.32
2018-05-03T08:15:08.847Z,95.51
2018-05-03T08:16:08.864Z,94.55
2018-05-03T08:17:08.891Z,94.55
2018-05-03T08:18:08.906Z,92.83
2018-05-03T08:19:08.927Z,91.30
2018-05-03T08:20:08.949Z,90.78
2018-05-03T08:21:08.979Z,90.01
2018-05-03T08:22:08.994Z,89.25
2018-05-03T08:23:09.013Z,89.29
2018-05-03T08:24:09.034Z,89.82
2018-05-03T08:25:09.059Z,91.25
2018-05-03T08:26:09.076Z,91.35
2018-05-03T08:27:09.095Z,91.16
2018-05-03T08:28:09.117Z,91.16
2018-05-03T08:29:09.138Z,91.64
2018-05-03T08:30:09.159Z,90.49
2018-05-03T08:31:09.181Z,90.68
2018-05-03T08:32:09.203Z,91.64
2018-05-03T08:33:09.221Z,91.25
2018-05-03T08:34:09.694Z,91.16
2018-05-03T08:35:09.264Z,91.11
2018-05-03T08:36:09.285Z,88.91
2018-05-03T08:37:09.306Z,89.25
2018-05-03T08:38:09.327Z,90.11
2018-05-03T08:39:09.349Z,88.77
2018-05-03T08:40:09.371Z,88.58
2018-05-03T08:41:09.391Z,89.44
2018-05-03T08:42:09.763Z,89.92
2018-05-03T08:43:09.435Z,90.11
2018-05-03T08:44:09.460Z,91.06
2018-05-03T08:45:09.480Z,90.73
2018-05-03T08:46:09.497Z,90.63
2018-05-03T08:47:09.519Z,89.96
2018-05-03T08:48:09.540Z,89.58
2018-05-03T08:49:09.562Z,89.20
2018-05-03T08:50:09.582Z,88.81
2018-05-03T08:51:09.654Z,88.15
2018-05-03T08:52:09.626Z,89.25
2018-05-03T08:53:09.646Z,89.67
2018-05-03T08:54:09.718Z,89.58
2018-05-03T08:55:09.690Z,89.01
2018-05-03T08:56:09.711Z,87.66
2018-05-03T08:57:09.733Z,87.90
2018-05-03T08:58:09.753Z,83.60
2018-05-03T08:59:09.775Z,85.41
2018-05-03T09:00:09.799Z,83.94
2018-05-03T09:01:09.817Z,83.75
2018-05-03T09:02:09.840Z,85.09
2018-05-03T09:03:09.860Z,86.86
2018-05-03T09:04:09.882Z,86.10
2018-05-03T09:05:09.910Z,83.90
2018-05-03T09:06:09.925Z,82.28
2018-05-03T09:07:09.947Z,83.90
2018-05-03T09:08:09.969Z,85.81
2018-05-03T09:09:09.989Z,85.33
2018-05-03T09:10:10.011Z,85.09
2018-05-03T09:11:10.233Z,84.17
2018-05-03T09:12:10.054Z,82.74
2018-05-03T09:13:10.076Z,81.88
2018-05-03T09:14:10.247Z,80.82
2018-05-03T09:15:10.120Z,81.40
2018-05-03T09:16:10.141Z,80.88
2018-05-03T09:17:10.261Z,81.07
2018-05-03T09:18:10.183Z,81.84
2018-05-03T09:19:10.204Z,80.69
2018-05-03T09:20:10.226Z,81.36
2018-05-03T09:21:10.248Z,79.54
2018-05-03T09:22:10.269Z,78.39
2018-05-03T09:23:10.290Z,76.10
2018-05-03T09:24:10.312Z,76.10
2018-05-03T09:25:10.333Z,75.66
2018-05-03T09:26:10.360Z,75.37
2018-05-03T09:27:10.376Z,75.27
2018-05-03T09:28:10.398Z,74.32
2018-05-03T09:29:10.419Z,74.13
2018-05-03T09:30:10.693Z,70.87
2018-05-03T09:31:10.466Z,63.42
2018-05-03T09:32:10.484Z,59.30
2018-05-03T09:33:10.504Z,58.80
2018-05-03T09:34:10.528Z,59.56
2018-05-03T09:35:10.554Z,60.71
2018-05-03T09:36:10.572Z,61.95
2018-05-03T09:37:10.593Z,62.14
2018-05-03T09:38:10.614Z,64.72
2018-05-03T09:39:10.693Z,65.77
2018-05-03T09:40:10.659Z,67.59
2018-05-03T09:41:10.680Z,67.53
2018-05-03T09:42:10.702Z,67.91
2018-05-03T09:43:10.728Z,69.25
2018-05-03T09:44:10.744Z,69.73
2018-05-03T09:45:10.766Z,66.96
2018-05-03T09:46:10.792Z,65.45
2018-05-03T09:47:10.811Z,63.93
2018-05-03T09:48:10.832Z,62.11
2018-05-03T09:49:10.853Z,58.56
2018-05-03T09:50:10.875Z,57.51
2018-05-03T09:51:10.900Z,55.12
2018-05-03T09:52:10.920Z,53.85
2018-05-03T09:53:10.940Z,51.93
2018-05-03T09:54:10.963Z,50.98
2018-05-03T09:55:10.985Z,50.79
2018-05-03T09:56:11.041Z,51.17
2018-05-03T09:57:11.089Z,52.34
2018-05-03T09:58:11.050Z,54.16
2018-05-03T09:59:11.072Z,53.69
2018-05-03T10:00:11.301Z,53.11
2018-05-03T10:01:11.116Z,51.68
2018-05-03T10:02:11.139Z,51.65
2018-05-03T10:03:11.160Z,52.51
2018-05-03T10:04:11.183Z,52.89
2018-05-03T10:05:11.204Z,52.89
2018-05-03T10:06:11.226Z,54.07
2018-05-03T10:07:11.248Z,53.85
2018-05-03T10:08:11.271Z,53.85
2018-05-03T10:09:11.299Z,55.00
2018-05-03T10:10:11.314Z,55.67
2018-05-03T10:11:11.336Z,56.24
2018-05-03T10:12:11.359Z,55.76
2018-05-03T10:13:11.406Z,56.24
2018-05-03T10:14:11.407Z,55.86
2018-05-03T10:15:11.426Z,54.14
2018-05-03T10:16:11.447Z,54.61
2018-05-03T10:17:11.770Z,54.04
2018-05-03T10:18:11.492Z,55.19
2018-05-03T10:19:11.512Z,54.14
2018-05-03T10:20:11.538Z,54.33
2018-05-03T10:21:11.555Z,53.97
2018-05-03T10:22:11.578Z,53.78
2018-05-03T10:23:11.600Z,53.59
2018-05-03T10:24:11.622Z,54.36
2018-05-03T10:25:11.644Z,55.34
2018-05-03T10:26:11.673Z,54.96
2018-05-03T10:27:11.688Z,53.49
2018-05-03T10:28:11.710Z,55.22
2018-05-03T10:29:11.731Z,55.76
2018-05-03T10:30:11.762Z,56.75
2018-05-03T10:31:11.776Z,56.08
2018-05-03T10:32:11.798Z,56.17
2018-05-03T10:33:11.820Z,56.46
2018-05-03T10:34:11.843Z,56.37
2018-05-03T10:35:11.865Z,55.44
2018-05-03T10:36:11.980Z,55.63
2018-05-03T10:37:11.908Z,54.38
2018-05-03T10:38:11.931Z,53.52
2018-05-03T10:39:11.954Z,54.26
2018-05-03T10:40:11.976Z,54.19
2018-05-03T10:41:11.997Z,53.52
2018-05-03T10:42:12.067Z,52.09
2018-05-03T10:43:12.042Z,52.75
2018-05-03T10:44:12.065Z,52.28
2018-05-03T10:45:12.086Z,51.61
2018-05-03T10:46:12.109Z,51.61
2018-05-03T10:47:12.132Z,51.73
2018-05-03T10:48:12.153Z,51.73
2018-05-03T10:49:12.175Z,48.47
2018-05-03T10:50:12.200Z,48.09
2018-05-03T10:51:12.220Z,46.08
2018-05-03T10:52:12.243Z,46.17
2018-05-03T10:53:12.265Z,46.65
2018-05-03T10:54:12.288Z,47.78
2018-05-03T10:55:12.312Z,48.35
2018-05-03T10:56:12.634Z,48.93
2018-05-03T10:57:12.354Z,48.73
2018-05-03T10:58:12.384Z,47.61
2018-05-03T10:59:12.401Z,47.61
2018-05-03T11:00:12.423Z,48.47
2018-05-03T11:01:12.445Z,47.99
2018-05-03T11:02:12.467Z,47.42
2018-05-03T11:03:12.490Z,47.99
2018-05-03T11:04:12.513Z,48.64
2018-05-03T11:05:12.571Z,48.66
2018-05-03T11:06:12.557Z,49.05
2018-05-03T11:07:12.580Z,49.11
2018-05-03T11:08:12.604Z,50.07
2018-05-03T11:09:12.625Z,50.20
2018-05-03T11:10:12.647Z,50.20
2018-05-03T11:11:12.767Z,50.10
2018-05-03T11:12:12.693Z,50.10
2018-05-03T11:13:12.715Z,49.62
2018-05-03T11:14:12.738Z,50.10
2018-05-03T11:15:12.763Z,49.05
2018-05-03T11:16:12.782Z,48.47
2018-05-03T11:17:12.805Z,48.66
2018-05-03T11:18:12.828Z,48.47
2018-05-03T11:19:12.851Z,47.87
2018-05-03T11:20:12.877Z,48.35
2018-05-03T11:21:12.901Z,48.07
2018-05-03T11:22:12.919Z,47.80
2018-05-03T11:23:12.943Z,48.09
2018-05-03T11:24:12.965Z,47.80
2018-05-03T11:25:12.995Z,47.71
2018-05-03T11:26:13.021Z,48.25
2018-05-03T11:27:13.039Z,48.95
2018-05-03T11:28:13.056Z,48.85
2018-05-03T11:29:13.077Z,47.03
2018-05-03T11:30:13.100Z,45.69
2018-05-03T11:31:13.123Z,45.98
2018-05-03T11:32:13.500Z,46.17
2018-05-03T11:33:13.374Z,45.21
2018-05-03T11:34:13.192Z,45.31
2018-05-03T11:35:13.215Z,45.59
2018-05-03T11:36:13.238Z,46.26
2018-05-03T11:37:13.260Z,46.08
2018-05-03T11:38:13.283Z,47.03
2018-05-03T11:39:13.307Z,46.94
2018-05-03T11:40:13.328Z,47.51
2018-05-03T11:41:13.350Z,46.94
2018-05-03T11:42:13.373Z,46.75
2018-05-03T11:43:13.397Z,46.94
2018-05-03T11:44:13.419Z,46.75
2018-05-03T11:45:13.442Z,46.65
2018-05-03T11:46:13.464Z,47.03
2018-05-03T11:47:13.487Z,47.22
2018-05-03T11:48:13.510Z,47.61
2018-05-03T11:49:13.532Z,47.13
2018-05-03T11:50:13.555Z,46.75
2018-05-03T11:51:13.581Z,46.65
2018-05-03T11:52:13.601Z,47.03
2018-05-03T11:53:13.623Z,46.96
2018-05-03T11:54:13.647Z,46.96
2018-05-03T11:55:13.669Z,47.25
2018-05-03T11:56:13.693Z,46.55
2018-05-03T11:57:13.716Z,47.13
2018-05-03T11:58:13.742Z,47.71
2018-05-03T11:59:13.832Z,47.61
2018-05-03T12:00:13.860Z,47.63
2018-05-03T12:01:14.959Z,47.63
2018-05-03T12:02:13.830Z,48.40
2018-05-03T12:03:13.853Z,47.99
2018-05-03T12:04:13.876Z,48.85
2018-05-03T12:05:13.898Z,49.33
2018-05-03T12:06:13.922Z,49.52
2018-05-03T12:07:13.947Z,49.26
2018-05-03T12:08:13.969Z,49.24
2018-05-03T12:09:13.994Z,48.85
2018-05-03T12:10:14.014Z,49.05
2018-05-03T12:11:14.042Z,49.62
2018-05-03T12:12:14.061Z,50.10
2018-05-03T12:13:14.083Z,49.81
2018-05-03T12:14:14.107Z,50.48
2018-05-03T12:15:14.130Z,50.00
2018-05-03T12:16:14.153Z,50.00
2018-05-03T12:17:14.174Z,49.81
2018-05-03T12:18:14.199Z,49.24
2018-05-03T12:19:14.222Z,48.47
2018-05-03T12:20:14.244Z,48.49
2018-05-03T12:21:14.269Z,47.92
2018-05-03T12:22:14.302Z,47.22
2018-05-03T12:23:14.312Z,46.94
2018-05-03T12:24:14.336Z,47.13
2018-05-03T12:25:14.358Z,45.89
2018-05-03T12:26:14.382Z,45.21
2018-05-03T12:27:14.404Z,45.59
2018-05-03T12:28:14.428Z,45.40
2018-05-03T12:29:14.450Z,45.31
2018-05-03T12:30:14.473Z,45.14
2018-05-03T12:31:14.696Z,45.33
2018-05-03T12:32:14.522Z,46.00
2018-05-03T12:33:14.543Z,46.10
2018-05-03T12:34:14.565Z,45.72
2018-05-03T12:35:14.588Z,46.77
2018-05-03T12:36:14.611Z,46.39
2018-05-03T12:37:14.634Z,46.96
2018-05-03T12:38:14.656Z,46.39
2018-05-03T12:39:14.679Z,46.75
2018-05-03T12:40:14.703Z,46.94
2018-05-03T12:41:14.724Z,47.99
2018-05-03T12:42:14.748Z,48.38
2018-05-03T12:43:14.772Z,48.38
2018-05-03T12:44:14.795Z,47.71
2018-05-03T12:45:14.817Z,46.94
2018-05-03T12:46:14.843Z,46.75
2018-05-03T12:47:14.863Z,46.75
2018-05-03T12:48:14.885Z,47.25
2018-05-03T12:49:14.906Z,45.69
2018-05-03T12:50:14.930Z,45.50
2018-05-03T12:51:14.953Z,44.64
2018-05-03T12:52:15.576Z,44.35
2018-05-03T12:53:14.998Z,44.66